Time;durP1;ratioP1;P1;durP2;ratioP2;P2;SDS_P1;SDS_P2;PMS_P1;PMS_P2;Temp;Humidity;BMP_temperature;BMP_pressure;BME280_temperature;BME280_humidity;BME280_pressure;Samples;Min_cycle;Max_cycle;Signal;HPM_P1;HPM_P2
2021/06/20 16:17:42;;;;;;;13.88;4.68;;;29.80;49.40;;;;;;5117383;27;20878;-63
2021/06/20 16:20:10;;;;;;;8.82;3.80;;;29.40;47.90;;;;;;5028866;28;20372;-63
2021/06/20 16:22:36;;;;;;;11.05;3.85;;;30.20;47.70;;;;;;5030638;28;20029;-64
2021/06/20 16:25:01;;;;;;;7.18;4.10;;;30.70;47.00;;;;;;5016532;28;20041;-64
2021/06/20 16:27:27;;;;;;;6.80;3.60;;;30.50;46.00;;;;;;5043192;28;20037;-63
2021/06/20 16:29:53;;;;;;;5.57;3.30;;;30.50;45.80;;;;;;5015000;28;20057;-63
2021/06/20 16:32:20;;;;;;;6.95;4.22;;;30.40;45.40;;;;;;5030404;28;20399;-64
2021/06/20 16:34:48;;;;;;;7.70;3.50;;;30.80;44.50;;;;;;5038006;28;20048;-64
2021/06/20 16:37:19;;;;;;;7.43;3.50;;;30.70;44.40;;;;;;5032124;28;20061;-64
2021/06/20 16:39:45;;;;;;;10.90;3.95;;;30.60;44.10;;;;;;5034946;28;20041;-64
2021/06/20 16:42:16;;;;;;;10.85;3.72;;;30.40;44.50;;;;;;5031343;28;20030;-64
2021/06/20 16:44:42;;;;;;;9.07;3.30;;;30.40;45.10;;;;;;5063385;28;20383;-64
2021/06/20 16:47:09;;;;;;;7.68;3.97;;;30.40;44.30;;;;;;5031506;28;20394;-64
2021/06/20 16:49:35;;;;;;;9.88;4.18;;;30.50;44.00;;;;;;5042045;28;20405;-63
2021/06/20 16:52:01;;;;;;;11.15;4.15;;;30.40;43.90;;;;;;5034905;28;20513;-63
2021/06/20 16:54:27;;;;;;;8.85;3.67;;;30.30;43.60;;;;;;5039989;28;20034;-63
2021/06/20 16:56:52;;;;;;;9.45;4.65;;;30.00;43.70;;;;;;5034528;28;20045;-64
2021/06/20 16:59:18;;;;;;;8.15;3.85;;;30.00;43.50;;;;;;5033886;28;20052;-64
2021/06/20 17:01:44;;;;;;;8.85;3.90;;;30.00;43.10;;;;;;5023547;28;20053;-64
2021/06/20 17:04:10;;;;;;;7.68;3.67;;;29.90;42.90;;;;;;5027887;28;20060;-63
2021/06/20 17:06:36;;;;;;;10.40;3.70;;;29.90;42.70;;;;;;5026366;28;20037;-63
2021/06/20 17:09:02;;;;;;;9.43;3.50;;;29.80;42.70;;;;;;5030712;28;20037;-64
2021/06/20 17:11:27;;;;;;;6.82;3.13;;;29.90;42.20;;;;;;5034866;28;20044;-63
2021/06/20 17:13:53;;;;;;;8.38;3.70;;;30.00;42.10;;;;;;5031279;28;20041;-63
2021/06/20 17:16:19;;;;;;;8.93;4.20;;;30.00;42.00;;;;;;5019372;28;20057;-64
2021/06/20 17:18:44;;;;;;;7.22;3.42;;;29.80;42.30;;;;;;5037150;28;20459;-63
2021/06/20 17:21:11;;;;;;;10.82;3.97;;;29.70;42.00;;;;;;5030612;28;20104;-63
2021/06/20 17:23:36;;;;;;;9.60;3.90;;;29.50;41.80;;;;;;5021852;28;20042;-64
2021/06/20 17:26:02;;;;;;;10.05;3.90;;;29.40;42.50;;;;;;5017596;28;20042;-63
2021/06/20 17:28:28;;;;;;;14.35;4.15;;;29.40;42.50;;;;;;5008949;28;20045;-63
2021/06/20 17:30:54;;;;;;;14.27;3.60;;;29.30;42.60;;;;;;5008731;28;20037;-63
2021/06/20 17:33:20;;;;;;;7.68;3.58;;;29.30;42.50;;;;;;5004160;28;20057;-63
2021/06/20 17:35:46;;;;;;;8.48;3.15;;;29.20;42.50;;;;;;5010436;28;20045;-64
2021/06/20 17:38:13;;;;;;;10.90;3.75;;;29.20;42.70;;;;;;5004855;28;20147;-65
2021/06/20 17:40:40;;;;;;;9.20;4.15;;;29.00;42.40;;;;;;5007633;28;20074;-63
2021/06/20 17:43:06;;;;;;;9.25;3.75;;;28.90;42.20;;;;;;5000718;28;20474;-63
2021/06/20 17:45:34;;;;;;;6.72;3.90;;;28.90;42.50;;;;;;5018022;28;20122;-63
2021/06/20 17:48:00;;;;;;;6.78;3.38;;;28.80;42.70;;;;;;5002643;28;20219;-63
2021/06/20 17:50:26;;;;;;;9.50;3.35;;;28.80;42.80;;;;;;5017157;28;21002;-63
2021/06/20 17:52:52;;;;;;;10.02;4.68;;;28.90;42.70;;;;;;5006556;28;20042;-61
2021/06/20 17:55:19;;;;;;;7.63;3.47;;;28.80;42.60;;;;;;5005279;28;20042;-64
2021/06/20 17:57:46;;;;;;;9.63;3.72;;;28.70;42.70;;;;;;5008267;28;20115;-64
2021/06/20 18:00:12;;;;;;;10.27;4.60;;;28.60;42.50;;;;;;5012330;28;20530;-64
2021/06/20 18:02:38;;;;;;;9.25;3.67;;;28.70;42.60;;;;;;5015131;28;20048;-64
2021/06/20 18:05:05;;;;;;;9.02;3.85;;;28.50;42.50;;;;;;5003713;28;20030;-64
2021/06/20 18:07:30;;;;;;;8.07;3.80;;;28.40;42.70;;;;;;5014067;28;20041;-62
2021/06/20 18:09:56;;;;;;;6.72;3.72;;;28.40;43.00;;;;;;5006917;28;20049;-64
2021/06/20 18:12:21;;;;;;;7.88;3.78;;;28.40;42.90;;;;;;5011799;28;20040;-64
2021/06/20 18:14:47;;;;;;;11.80;4.53;;;28.30;43.20;;;;;;5016473;28;20117;-64
2021/06/20 18:17:13;;;;;;;12.57;4.13;;;28.40;43.40;;;;;;5006823;28;20463;-63
2021/06/20 18:19:38;;;;;;;6.38;3.90;;;28.30;43.50;;;;;;5004755;28;20102;-63
2021/06/20 18:22:05;;;;;;;8.38;3.60;;;28.20;43.70;;;;;;5011114;28;20042;-64
2021/06/20 18:24:31;;;;;;;11.65;3.85;;;28.20;45.50;;;;;;5014080;28;20037;-64
2021/06/20 18:26:57;;;;;;;14.60;4.10;;;28.10;48.50;;;;;;5016348;28;20152;-63
2021/06/20 18:29:25;;;;;;;10.25;4.20;;;28.00;49.00;;;;;;5002549;28;20048;-62
2021/06/20 18:31:51;;;;;;;10.43;4.30;;;27.90;49.10;;;;;;5014726;28;20090;-64
2021/06/20 18:34:17;;;;;;;11.32;4.60;;;27.80;48.70;;;;;;5008687;28;20033;-64
2021/06/20 18:36:43;;;;;;;9.05;5.00;;;27.80;48.90;;;;;;5019986;28;20113;-63
2021/06/20 18:39:09;;;;;;;12.60;3.95;;;27.80;49.00;;;;;;5016535;28;20446;-63
2021/06/20 18:41:36;;;;;;;13.38;5.60;;;27.60;49.20;;;;;;5017474;28;20046;-63
2021/06/20 18:44:01;;;;;;;15.05;5.45;;;27.70;49.40;;;;;;5019753;28;20530;-63
2021/06/20 18:46:27;;;;;;;10.23;5.20;;;27.70;49.60;;;;;;4994413;28;20121;-62
2021/06/20 18:48:53;;;;;;;11.80;5.13;;;27.70;49.70;;;;;;5009415;28;20216;-62
2021/06/20 18:51:19;;;;;;;13.23;4.68;;;27.60;49.30;;;;;;5010488;28;20133;-63
2021/06/20 18:53:46;;;;;;;11.85;4.55;;;27.60;49.30;;;;;;5015129;28;20040;-63
2021/06/20 18:56:12;;;;;;;12.75;4.55;;;27.70;48.80;;;;;;5019885;28;20064;-63
2021/06/20 18:58:38;;;;;;;10.77;4.47;;;27.50;48.50;;;;;;5004294;28;20046;-63
2021/06/20 19:01:04;;;;;;;11.60;4.55;;;27.40;48.10;;;;;;5028096;28;20107;-63
2021/06/20 19:03:30;;;;;;;12.35;4.80;;;27.40;48.10;;;;;;5010624;28;20613;-63
2021/06/20 19:05:55;;;;;;;9.93;4.75;;;27.40;47.90;;;;;;5007720;28;20046;-63
2021/06/20 19:08:21;;;;;;;14.32;4.40;;;27.30;48.00;;;;;;5013498;28;20046;-63
2021/06/20 19:10:47;;;;;;;16.30;5.68;;;27.40;47.60;;;;;;5017762;28;20033;-63
2021/06/20 19:13:13;;;;;;;13.60;5.25;;;27.50;47.60;;;;;;5012018;28;20049;-63
2021/06/20 19:15:40;;;;;;;16.45;4.88;;;27.30;47.30;;;;;;5003878;28;20050;-63
2021/06/20 19:18:05;;;;;;;14.25;4.80;;;27.30;47.30;;;;;;5032795;28;20339;-63
2021/06/20 19:20:33;;;;;;;18.90;5.70;;;27.30;47.20;;;;;;5016106;28;20044;-64
2021/06/20 19:22:59;;;;;;;13.93;5.00;;;27.30;47.10;;;;;;5004247;28;20099;-64
2021/06/20 19:25:27;;;;;;;13.93;4.43;;;27.30;47.20;;;;;;5009624;28;20092;-64
2021/06/20 19:27:52;;;;;;;13.25;4.50;;;27.30;47.30;;;;;;5007172;28;20033;-63
2021/06/20 19:30:19;;;;;;;13.73;4.45;;;27.20;47.30;;;;;;5010174;28;20513;-64
2021/06/20 19:32:47;;;;;;;12.55;4.82;;;27.20;47.50;;;;;;5009130;28;20113;-64
2021/06/20 19:35:13;;;;;;;15.85;5.18;;;27.10;47.70;;;;;;5015848;28;20045;-64
2021/06/20 19:37:39;;;;;;;15.98;5.93;;;27.00;47.80;;;;;;5014698;28;20170;-64
2021/06/20 19:40:06;;;;;;;17.33;5.93;;;27.10;47.90;;;;;;5007704;28;20432;-64
2021/06/20 19:42:32;;;;;;;12.88;5.25;;;27.00;47.90;;;;;;5005504;28;20034;-64
2021/06/20 19:44:58;;;;;;;13.55;5.55;;;27.10;48.10;;;;;;5009498;28;20056;-64
2021/06/20 19:47:24;;;;;;;12.38;4.75;;;27.00;48.30;;;;;;5008565;28;20045;-63
2021/06/20 19:49:50;;;;;;;16.73;5.13;;;26.90;48.10;;;;;;5025412;28;20124;-65
2021/06/20 19:52:16;;;;;;;21.25;5.30;;;27.00;48.20;;;;;;5010177;28;20124;-65
2021/06/20 19:54:42;;;;;;;13.07;5.25;;;27.00;48.30;;;;;;5009312;28;20182;-64
2021/06/20 19:57:09;;;;;;;13.02;5.20;;;27.00;48.30;;;;;;5009881;28;20487;-64
2021/06/20 19:59:35;;;;;;;15.80;5.18;;;26.90;48.50;;;;;;5005724;28;20046;-64
2021/06/20 20:02:00;;;;;;;13.60;5.03;;;27.00;48.80;;;;;;5006450;28;20510;-64
2021/06/20 20:04:26;;;;;;;18.33;5.15;;;27.00;48.60;;;;;;5003685;28;20066;-64
2021/06/20 20:06:52;;;;;;;18.40;5.30;;;26.90;48.80;;;;;;5013927;28;20049;-63
2021/06/20 20:09:18;;;;;;;20.35;6.15;;;26.90;48.80;;;;;;5004831;28;20042;-64
2021/06/20 20:11:44;;;;;;;15.45;5.45;;;26.90;48.90;;;;;;5006172;28;20042;-64
2021/06/20 20:14:12;;;;;;;16.52;5.90;;;26.90;49.10;;;;;;5004959;28;20506;-64
2021/06/20 20:16:38;;;;;;;15.40;4.40;;;26.90;48.80;;;;;;5013672;28;20057;-64
2021/06/20 20:19:05;;;;;;;12.73;4.63;;;26.90;49.40;;;;;;5018702;28;20099;-64
2021/06/20 20:21:31;;;;;;;16.83;4.93;;;26.90;49.00;;;;;;5034402;28;20051;-64
2021/06/20 20:23:56;;;;;;;12.68;5.68;;;26.90;49.10;;;;;;5015780;28;20045;-63
2021/06/20 20:26:22;;;;;;;16.52;5.03;;;26.70;49.10;;;;;;5005655;28;20038;-63
2021/06/20 20:28:48;;;;;;;10.10;4.72;;;26.80;49.10;;;;;;5005886;28;20091;-63
2021/06/20 20:31:14;;;;;;;15.00;5.35;;;26.80;49.50;;;;;;5013030;28;20053;-63
2021/06/20 20:34:11;;;;;;;17.25;4.88;;;26.80;49.20;;;;;;5009104;28;20038;-64
2021/06/20 20:36:38;;;;;;;15.88;4.85;;;26.60;49.60;;;;;;4981114;28;20483;-62
2021/06/20 20:39:04;;;;;;;13.20;4.40;;;26.70;49.80;;;;;;5008565;28;20522;-62
2021/06/20 20:41:30;;;;;;;11.88;5.03;;;26.60;50.20;;;;;;5001944;28;20038;-62
2021/06/20 20:43:56;;;;;;;18.27;5.25;;;26.60;49.80;;;;;;5004577;28;20529;-62
2021/06/20 20:46:22;;;;;;;21.27;5.63;;;26.50;50.00;;;;;;5017400;28;20056;-62
2021/06/20 20:48:47;;;;;;;18.98;4.07;;;26.60;50.10;;;;;;5000547;28;20091;-62
2021/06/20 20:51:13;;;;;;;20.75;5.50;;;26.60;50.10;;;;;;4999101;28;20050;-62
2021/06/20 20:53:39;;;;;;;19.35;5.80;;;26.60;49.90;;;;;;5003983;28;20443;-62
2021/06/20 20:56:06;;;;;;;13.93;4.00;;;26.60;49.90;;;;;;5009101;28;20045;-63
2021/06/20 20:58:32;;;;;;;15.75;5.30;;;26.60;49.80;;;;;;5010491;28;20042;-62
2021/06/20 21:00:59;;;;;;;15.80;5.55;;;26.50;50.10;;;;;;4994551;28;20038;-63
2021/06/20 21:03:24;;;;;;;16.70;5.10;;;26.50;50.40;;;;;;5014783;28;20566;-61
2021/06/20 21:05:50;;;;;;;18.30;6.13;;;26.50;50.40;;;;;;5001394;28;20046;-62
2021/06/20 21:08:16;;;;;;;18.70;5.82;;;26.50;50.50;;;;;;5007566;28;20033;-62
2021/06/20 21:10:41;;;;;;;22.60;8.75;;;26.40;51.00;;;;;;5011119;28;20088;-62
2021/06/20 21:13:07;;;;;;;15.68;5.65;;;26.40;51.70;;;;;;5032688;28;20054;-62
2021/06/20 21:15:33;;;;;;;16.50;4.57;;;26.20;51.30;;;;;;5013802;28;20057;-62
2021/06/20 21:17:58;;;;;;;11.20;5.05;;;26.20;51.40;;;;;;5000502;28;20121;-62
2021/06/20 21:20:24;;;;;;;13.75;4.65;;;26.20;51.30;;;;;;5010915;28;20514;-61
2021/06/20 21:22:50;;;;;;;16.17;4.65;;;26.30;51.50;;;;;;5007820;28;20514;-62
2021/06/20 21:25:16;;;;;;;19.75;5.70;;;26.30;51.30;;;;;;5010450;28;20124;-63
2021/06/20 21:27:42;;;;;;;13.40;4.53;;;26.30;51.50;;;;;;5010898;28;20049;-62
2021/06/20 21:30:12;;;;;;;16.90;4.97;;;26.10;52.10;;;;;;5021870;28;20030;-61
2021/06/20 21:32:38;;;;;;;14.85;5.38;;;26.10;51.80;;;;;;5003075;28;20469;-62
2021/06/20 21:35:05;;;;;;;14.27;5.03;;;26.00;51.90;;;;;;5021628;28;20160;-62
2021/06/20 21:37:32;;;;;;;18.77;5.15;;;26.00;52.30;;;;;;5014982;28;20054;-61
2021/06/20 21:39:59;;;;;;;13.90;4.38;;;26.10;52.50;;;;;;5017287;28;20038;-60
2021/06/20 21:42:25;;;;;;;15.40;4.38;;;26.10;52.90;;;;;;5039766;28;20518;-61
2021/06/20 21:44:51;;;;;;;18.27;4.75;;;26.00;52.20;;;;;;5008460;28;20038;-62
2021/06/20 21:47:17;;;;;;;17.05;5.30;;;26.00;52.30;;;;;;5026469;28;20069;-62
2021/06/20 21:49:46;;;;;;;16.77;5.13;;;26.00;52.30;;;;;;5007501;28;20476;-61
2021/06/20 21:52:12;;;;;;;13.05;4.72;;;26.00;52.30;;;;;;5000533;28;20042;-61
2021/06/20 21:54:37;;;;;;;17.15;5.03;;;26.10;52.30;;;;;;5018111;28;20080;-61
2021/06/20 21:57:03;;;;;;;14.68;4.97;;;26.00;52.60;;;;;;5023689;28;20050;-62
2021/06/20 21:59:29;;;;;;;13.27;4.20;;;26.00;52.70;;;;;;5001823;28;20071;-62
2021/06/20 22:01:55;;;;;;;13.77;4.38;;;25.90;52.80;;;;;;5005149;28;20041;-62
2021/06/20 22:04:22;;;;;;;17.65;5.35;;;25.90;52.80;;;;;;5005254;28;20181;-62
2021/06/20 22:06:48;;;;;;;14.57;4.65;;;25.90;52.90;;;;;;5009158;28;20073;-62
2021/06/20 22:09:13;;;;;;;14.60;4.80;;;25.80;52.80;;;;;;5006109;28;20506;-62
2021/06/20 22:11:39;;;;;;;13.77;4.57;;;25.90;53.00;;;;;;5013142;28;20399;-62
2021/06/20 22:14:05;;;;;;;14.45;5.25;;;25.90;53.10;;;;;;5000493;28;20034;-62
2021/06/20 22:16:30;;;;;;;9.93;4.75;;;25.80;53.00;;;;;;5015969;28;20042;-62
2021/06/20 22:18:57;;;;;;;15.77;5.03;;;25.90;52.90;;;;;;5003684;28;20168;-62
2021/06/20 22:21:22;;;;;;;12.15;4.95;;;25.80;53.00;;;;;;5004678;28;20050;-61
2021/06/20 22:23:48;;;;;;;12.98;4.82;;;25.90;53.10;;;;;;5015428;28;20049;-61
2021/06/20 22:26:14;;;;;;;17.77;5.35;;;25.90;53.30;;;;;;5023471;28;20041;-62
2021/06/20 22:28:40;;;;;;;16.88;5.75;;;25.90;53.10;;;;;;5007867;28;23450;-62
2021/06/20 22:31:05;;;;;;;13.80;4.78;;;25.90;53.00;;;;;;5017606;28;20489;-62
2021/06/20 22:33:31;;;;;;;19.40;5.00;;;25.80;53.20;;;;;;5011048;28;20363;-62
2021/06/20 22:35:57;;;;;;;17.70;6.07;;;25.80;53.40;;;;;;5003994;28;20073;-62
2021/06/20 22:38:23;;;;;;;13.65;4.47;;;25.80;53.60;;;;;;5020669;28;20102;-62
2021/06/20 22:40:49;;;;;;;14.35;4.50;;;25.70;53.80;;;;;;5028701;28;20072;-62
2021/06/20 22:43:16;;;;;;;19.00;5.30;;;25.80;53.60;;;;;;5008896;28;20049;-62
2021/06/20 22:45:42;;;;;;;16.58;5.82;;;25.80;54.00;;;;;;5014838;28;20033;-62
2021/06/20 22:48:08;;;;;;;12.80;4.38;;;25.80;53.60;;;;;;5014163;28;20072;-62
2021/06/20 22:50:34;;;;;;;13.63;5.03;;;25.80;53.80;;;;;;5035759;28;20487;-62
2021/06/20 22:52:59;;;;;;;18.05;5.35;;;25.70;53.80;;;;;;5023043;28;20037;-62
2021/06/20 22:55:25;;;;;;;10.85;5.05;;;25.70;54.00;;;;;;5017837;28;20042;-61
2021/06/20 22:57:52;;;;;;;12.40;5.25;;;25.80;54.20;;;;;;5023655;28;20056;-62
2021/06/20 23:00:30;;;;;;;18.00;4.82;;;25.80;53.60;;;;;;5017112;28;20083;-62
2021/06/20 23:02:56;;;;;;;18.08;5.00;;;25.80;53.70;;;;;;5005419;28;20038;-62
2021/06/20 23:05:23;;;;;;;16.73;5.05;;;25.90;53.50;;;;;;5014508;28;20038;-62
2021/06/20 23:07:49;;;;;;;14.63;5.72;;;25.80;53.70;;;;;;5024874;28;20034;-62
2021/06/20 23:10:15;;;;;;;15.30;5.50;;;25.80;53.70;;;;;;5008130;28;20038;-61
2021/06/20 23:12:41;;;;;;;22.15;5.53;;;25.70;53.90;;;;;;5012263;28;20041;-61
2021/06/20 23:15:09;;;;;;;14.25;4.70;;;25.80;53.70;;;;;;5007051;28;20053;-62
2021/06/20 23:17:35;;;;;;;13.05;5.18;;;25.80;53.70;;;;;;5012879;28;20041;-62
2021/06/20 23:20:00;;;;;;;15.80;5.22;;;25.80;53.90;;;;;;5019974;28;20088;-62
2021/06/20 23:22:26;;;;;;;20.73;6.05;;;25.80;53.70;;;;;;5007747;28;20045;-61
2021/06/20 23:24:52;;;;;;;13.75;5.55;;;25.80;53.80;;;;;;5010405;28;20042;-61
2021/06/20 23:27:18;;;;;;;12.38;4.85;;;25.80;53.70;;;;;;5007393;28;20030;-61
2021/06/20 23:29:44;;;;;;;15.60;5.30;;;25.80;53.80;;;;;;5019882;28;20128;-62
2021/06/20 23:32:11;;;;;;;13.50;5.47;;;25.80;54.00;;;;;;5016777;28;20117;-62
2021/06/20 23:34:41;;;;;;;17.65;4.88;;;25.90;53.80;;;;;;5038480;28;20469;-62
2021/06/20 23:37:08;;;;;;;14.82;5.20;;;25.80;54.20;;;;;;5035998;28;20132;-61
2021/06/20 23:39:34;;;;;;;16.98;5.50;;;25.80;54.60;;;;;;5019377;28;20037;-61
2021/06/20 23:42:00;;;;;;;16.90;4.93;;;25.70;55.00;;;;;;5014088;28;20035;-61
2021/06/20 23:44:27;;;;;;;11.07;4.95;;;25.80;54.90;;;;;;5007031;28;20543;-61
2021/06/20 23:46:53;;;;;;;16.88;6.25;;;25.80;55.10;;;;;;5012091;28;20080;-61
2021/06/20 23:49:19;;;;;;;14.32;4.65;;;25.80;55.60;;;;;;5016124;28;20037;-62
2021/06/20 23:51:45;;;;;;;15.50;5.40;;;25.70;55.30;;;;;;4996727;28;20120;-61
2021/06/20 23:54:10;;;;;;;14.15;4.63;;;25.70;55.50;;;;;;5001874;28;20034;-61
2021/06/20 23:56:36;;;;;;;14.40;5.25;;;25.70;55.40;;;;;;5016218;28;20053;-61
2021/06/20 23:59:02;;;;;;;12.00;5.50;;;25.80;55.70;;;;;;5005140;28;20625;-61
